Time;durP1;ratioP1;P1;durP2;ratioP2;P2;SDS_P1;SDS_P2;PMS_P1;PMS_P2;Temp;Humidity;BMP_temperature;BMP_pressure;BME280_temperature;BME280_humidity;BME280_pressure;Samples;Min_cycle;Max_cycle;Signal;HPM_P1;HPM_P2
2024/01/22 00:02:15;;;;;;;12.32;5.32;;;7.20;99.90;;;;;;5006252;28;20089;-76
2024/01/22 00:04:40;;;;;;;12.15;4.70;;;7.20;99.90;;;;;;5013113;28;20117;-75
2024/01/22 00:07:06;;;;;;;9.57;4.95;;;7.30;99.90;;;;;;5012374;28;20069;-76
2024/01/22 00:09:31;;;;;;;11.52;5.30;;;7.30;99.90;;;;;;5012338;28;20554;-76
2024/01/22 00:11:57;;;;;;;11.02;5.00;;;7.30;99.90;;;;;;5013764;28;20052;-76
2024/01/22 00:14:23;;;;;;;13.77;4.70;;;7.30;99.90;;;;;;5011375;28;20049;-75
2024/01/22 00:16:48;;;;;;;8.50;4.57;;;7.40;99.90;;;;;;5013406;28;20041;-76
2024/01/22 00:19:14;;;;;;;12.00;4.80;;;7.40;99.90;;;;;;5008553;28;20124;-76
2024/01/22 00:21:43;;;;;;;10.32;4.70;;;7.50;99.90;;;;;;5003989;28;20053;-76
2024/01/22 00:24:09;;;;;;;10.55;4.70;;;7.50;99.90;;;;;;5009683;28;20049;-76
2024/01/22 00:26:35;;;;;;;14.82;4.88;;;7.50;99.90;;;;;;5009424;28;20109;-77
2024/01/22 00:29:00;;;;;;;10.63;5.60;;;7.50;99.90;;;;;;5013902;28;20609;-76
2024/01/22 00:31:26;;;;;;;10.48;4.93;;;7.50;99.90;;;;;;5013348;28;20042;-77
2024/01/22 00:33:51;;;;;;;11.15;5.20;;;7.40;99.90;;;;;;5008468;28;20038;-76
2024/01/22 00:36:17;;;;;;;8.30;4.35;;;7.50;99.90;;;;;;5003555;28;20038;-76
2024/01/22 00:38:43;;;;;;;10.30;4.50;;;7.50;99.90;;;;;;5005540;28;20121;-77
2024/01/22 00:41:09;;;;;;;7.50;5.15;;;7.50;99.90;;;;;;5006948;28;20048;-77
2024/01/22 00:43:36;;;;;;;8.73;4.82;;;7.40;99.90;;;;;;5011954;28;20441;-76
2024/01/22 00:46:02;;;;;;;8.82;4.80;;;7.50;99.90;;;;;;5006111;28;20050;-76
2024/01/22 00:48:28;;;;;;;9.02;3.92;;;7.60;99.90;;;;;;5011173;28;20036;-76
2024/01/22 00:50:54;;;;;;;10.80;4.60;;;7.60;99.90;;;;;;5008554;28;20069;-75
2024/01/22 00:53:19;;;;;;;7.90;4.78;;;7.60;99.90;;;;;;5006553;28;20113;-76
2024/01/22 00:55:45;;;;;;;10.82;4.00;;;7.70;99.90;;;;;;5005897;28;20045;-76
2024/01/22 00:58:11;;;;;;;12.48;4.55;;;7.70;99.90;;;;;;5012000;28;20510;-76
2024/01/22 01:00:37;;;;;;;9.20;4.30;;;7.70;99.90;;;;;;5012813;28;20053;-76
2024/01/22 01:03:02;;;;;;;8.57;4.03;;;7.80;99.90;;;;;;4997857;28;20064;-76
2024/01/22 01:05:28;;;;;;;7.47;3.88;;;7.90;99.90;;;;;;5001549;28;20034;-75
2024/01/22 01:07:54;;;;;;;6.88;4.00;;;7.90;99.90;;;;;;4990816;28;20038;-76
2024/01/22 01:10:19;;;;;;;9.52;4.60;;;8.00;99.90;;;;;;5007625;28;20091;-76
2024/01/22 01:12:45;;;;;;;7.78;3.85;;;8.10;99.90;;;;;;5009402;28;20122;-76
2024/01/22 01:15:11;;;;;;;8.80;4.00;;;8.20;99.90;;;;;;5007217;28;20042;-75
2024/01/22 01:17:37;;;;;;;7.13;4.10;;;8.20;99.90;;;;;;5006320;28;20046;-75
2024/01/22 01:20:03;;;;;;;5.97;3.70;;;8.30;99.90;;;;;;4999711;28;20408;-75
2024/01/22 01:22:30;;;;;;;9.63;4.13;;;8.30;99.90;;;;;;5005992;28;20037;-76
2024/01/22 01:24:56;;;;;;;7.85;3.83;;;8.40;99.90;;;;;;5006317;28;20077;-76
2024/01/22 01:27:21;;;;;;;7.13;4.15;;;8.40;99.90;;;;;;5010620;28;20088;-76
2024/01/22 01:29:47;;;;;;;7.20;3.88;;;8.40;99.90;;;;;;5008269;28;20033;-76
2024/01/22 01:32:12;;;;;;;6.85;4.00;;;8.50;99.90;;;;;;5011160;28;20041;-76
2024/01/22 01:34:38;;;;;;;9.95;4.47;;;8.50;99.90;;;;;;5009838;28;20045;-77
2024/01/22 01:37:04;;;;;;;7.53;4.25;;;8.50;99.90;;;;;;5008095;28;20058;-77
2024/01/22 01:39:30;;;;;;;8.52;3.72;;;8.50;99.90;;;;;;5010967;28;20133;-78
2024/01/22 01:41:55;;;;;;;10.68;4.32;;;8.50;99.90;;;;;;5007048;28;20121;-77
2024/01/22 01:44:46;;;;;;;9.15;4.45;;;8.60;99.90;;;;;;5006058;28;20037;-77
2024/01/22 01:47:12;;;;;;;9.68;5.30;;;8.50;99.90;;;;;;5008807;28;20541;-78
2024/01/22 01:49:37;;;;;;;9.00;4.75;;;8.50;99.90;;;;;;5010353;28;20120;-78
2024/01/22 01:52:03;;;;;;;11.20;4.35;;;8.50;99.90;;;;;;5008091;28;20180;-79
2024/01/22 01:54:29;;;;;;;10.02;4.55;;;8.50;99.90;;;;;;5007535;28;20038;-79
2024/01/22 01:56:55;;;;;;;10.20;4.72;;;8.50;99.90;;;;;;5009631;28;20434;-79
2024/01/22 01:59:21;;;;;;;10.05;4.60;;;8.50;99.90;;;;;;5008148;28;20136;-78
2024/01/22 02:01:46;;;;;;;9.57;4.32;;;8.50;99.90;;;;;;5009742;28;20038;-80
2024/01/22 02:04:12;;;;;;;9.57;3.90;;;8.50;99.90;;;;;;5010798;28;20492;-79
2024/01/22 02:06:37;;;;;;;8.32;3.63;;;8.50;99.90;;;;;;4996467;28;20479;-79
2024/01/22 02:09:03;;;;;;;8.63;4.07;;;8.50;99.90;;;;;;5014694;28;20042;-79
2024/01/22 02:11:29;;;;;;;9.30;4.68;;;8.60;99.90;;;;;;5000681;28;20052;-79
2024/01/22 02:13:54;;;;;;;6.75;4.50;;;8.60;99.90;;;;;;5009158;28;20085;-79
2024/01/22 02:16:20;;;;;;;10.50;4.47;;;8.60;99.90;;;;;;5008577;28;20038;-79
2024/01/22 02:18:47;;;;;;;8.88;4.70;;;8.60;99.90;;;;;;5003792;28;20464;-79
2024/01/22 02:21:14;;;;;;;11.20;4.32;;;8.60;99.90;;;;;;5004184;28;20046;-80
2024/01/22 02:23:40;;;;;;;9.27;4.13;;;8.60;99.90;;;;;;5004734;28;20050;-80
2024/01/22 02:26:05;;;;;;;6.72;3.75;;;8.60;99.90;;;;;;5009218;28;20072;-80
2024/01/22 02:28:32;;;;;;;9.43;4.30;;;8.60;99.90;;;;;;5011416;28;20479;-80
2024/01/22 02:30:58;;;;;;;7.97;3.72;;;8.60;99.90;;;;;;5006847;28;20046;-79
2024/01/22 02:33:24;;;;;;;8.52;4.35;;;8.60;99.90;;;;;;4992605;28;20070;-80
2024/01/22 02:35:49;;;;;;;7.53;3.83;;;8.60;99.90;;;;;;5010181;28;20061;-80
2024/01/22 02:38:15;;;;;;;10.13;4.30;;;8.60;99.90;;;;;;5010020;28;20119;-79
2024/01/22 02:40:41;;;;;;;9.48;4.75;;;8.60;99.90;;;;;;5011008;28;20096;-79
2024/01/22 02:43:06;;;;;;;7.72;3.83;;;8.60;99.90;;;;;;5008973;28;20045;-79
2024/01/22 02:45:32;;;;;;;7.78;4.10;;;8.70;99.90;;;;;;5009540;28;20049;-79
2024/01/22 02:47:57;;;;;;;7.80;4.05;;;8.70;99.90;;;;;;5000765;28;20129;-79
2024/01/22 02:50:23;;;;;;;8.10;4.60;;;8.70;99.90;;;;;;5006694;28;20093;-79
2024/01/22 02:52:49;;;;;;;9.52;3.60;;;8.70;99.90;;;;;;5009935;28;20034;-79
2024/01/22 02:55:14;;;;;;;7.53;3.78;;;8.70;99.90;;;;;;5012014;28;20099;-79
2024/01/22 02:57:40;;;;;;;7.00;4.15;;;8.80;99.90;;;;;;5007656;28;20044;-79
2024/01/22 03:00:06;;;;;;;5.28;3.55;;;8.80;99.90;;;;;;5002325;28;20042;-79
2024/01/22 03:02:32;;;;;;;7.80;3.92;;;8.80;99.90;;;;;;4980183;28;20076;-79
2024/01/22 03:04:57;;;;;;;8.25;3.97;;;8.90;99.90;;;;;;4999936;28;20475;-80
2024/01/22 03:07:23;;;;;;;6.20;3.83;;;8.90;99.90;;;;;;5009376;28;20046;-79
2024/01/22 03:09:48;;;;;;;7.80;3.70;;;8.90;99.90;;;;;;5008777;28;20089;-79
2024/01/22 03:12:14;;;;;;;5.60;3.70;;;8.80;99.90;;;;;;5005011;28;20558;-79
2024/01/22 03:14:40;;;;;;;7.90;3.95;;;8.90;99.90;;;;;;5000398;28;20126;-79
2024/01/22 03:17:06;;;;;;;9.82;4.35;;;8.90;99.90;;;;;;5006367;28;20067;-79
2024/01/22 03:19:31;;;;;;;7.57;3.28;;;8.80;99.90;;;;;;5008087;28;20030;-79
2024/01/22 03:21:57;;;;;;;8.18;3.70;;;8.90;99.90;;;;;;5000781;28;20041;-80
2024/01/22 03:24:22;;;;;;;6.07;3.70;;;8.90;99.90;;;;;;5010288;28;20468;-79
2024/01/22 03:26:48;;;;;;;9.25;3.90;;;8.90;99.90;;;;;;5008600;28;20189;-79
2024/01/22 03:29:13;;;;;;;9.00;3.80;;;8.90;99.90;;;;;;5000881;28;20042;-79
2024/01/22 03:31:39;;;;;;;8.48;3.80;;;8.90;99.90;;;;;;5008923;28;20430;-79
2024/01/22 03:34:05;;;;;;;9.10;3.58;;;8.90;99.90;;;;;;5003510;28;20109;-80
2024/01/22 03:36:31;;;;;;;7.40;3.17;;;8.90;99.90;;;;;;5007833;28;20104;-80
2024/01/22 03:38:56;;;;;;;5.68;3.40;;;8.90;99.90;;;;;;5008358;28;20037;-79
2024/01/22 03:41:22;;;;;;;7.95;3.10;;;8.90;99.90;;;;;;5009813;28;20041;-80
2024/01/22 03:43:48;;;;;;;9.07;3.95;;;9.20;99.90;;;;;;5007099;28;20073;-79
2024/01/22 03:46:14;;;;;;;8.27;3.65;;;8.80;99.90;;;;;;5004582;28;20073;-79
2024/01/22 03:48:40;;;;;;;10.73;3.97;;;8.80;99.90;;;;;;5012622;28;20042;-80
2024/01/22 03:51:06;;;;;;;8.73;3.55;;;8.80;99.90;;;;;;5012925;28;20049;-80
2024/01/22 03:53:32;;;;;;;8.57;3.80;;;8.90;99.90;;;;;;5011453;28;20581;-79
2024/01/22 03:55:58;;;;;;;5.95;3.50;;;8.90;99.90;;;;;;5004734;28;20083;-79
2024/01/22 03:58:23;;;;;;;7.30;3.13;;;8.90;99.90;;;;;;5016856;28;20037;-78
2024/01/22 04:00:49;;;;;;;9.80;3.47;;;8.90;99.90;;;;;;5013049;28;20045;-79
2024/01/22 04:03:14;;;;;;;6.28;3.55;;;9.00;99.90;;;;;;5013972;28;20491;-79
2024/01/22 04:05:42;;;;;;;6.20;3.00;;;8.90;99.90;;;;;;5009258;28;20046;-79
2024/01/22 04:08:07;;;;;;;7.55;3.70;;;9.00;99.90;;;;;;5000772;28;20042;-79
2024/01/22 04:10:33;;;;;;;6.90;3.00;;;9.00;99.90;;;;;;5002155;28;20389;-79
2024/01/22 04:12:59;;;;;;;5.80;2.90;;;9.00;99.90;;;;;;5012630;28;20634;-79
2024/01/22 04:15:24;;;;;;;6.65;3.53;;;9.00;99.90;;;;;;5012707;28;20483;-79
2024/01/22 04:17:50;;;;;;;7.40;3.47;;;9.00;99.90;;;;;;5012314;28;20030;-79
2024/01/22 04:20:15;;;;;;;5.57;3.15;;;9.00;99.90;;;;;;5012687;28;20045;-79
2024/01/22 04:22:41;;;;;;;7.30;3.47;;;9.10;99.90;;;;;;5006104;28;20129;-78
2024/01/22 04:25:07;;;;;;;7.28;3.55;;;9.10;99.90;;;;;;5012909;28;20198;-78
2024/01/22 04:27:32;;;;;;;5.82;3.42;;;9.10;99.90;;;;;;5005443;28;20078;-79
2024/01/22 04:29:58;;;;;;;5.72;3.25;;;9.10;99.90;;;;;;5003276;28;20030;-79
2024/01/22 04:32:24;;;;;;;5.53;3.33;;;9.10;99.90;;;;;;5012330;28;20127;-79
2024/01/22 04:34:50;;;;;;;5.10;2.90;;;9.20;99.90;;;;;;5012688;28;20066;-79
2024/01/22 04:37:16;;;;;;;4.47;2.58;;;9.20;99.90;;;;;;5011231;28;20037;-79
2024/01/22 04:39:42;;;;;;;4.43;2.53;;;9.20;99.90;;;;;;5012698;28;20092;-79
2024/01/22 04:42:08;;;;;;;5.70;2.65;;;9.30;99.90;;;;;;5012669;28;20529;-79
2024/01/22 04:44:34;;;;;;;4.47;2.90;;;9.20;99.90;;;;;;5009703;28;20042;-79
2024/01/22 04:47:00;;;;;;;5.32;2.72;;;9.30;99.90;;;;;;5011420;28;20041;-79
2024/01/22 04:49:25;;;;;;;6.68;2.90;;;9.30;99.90;;;;;;5011469;28;20026;-79
2024/01/22 04:51:51;;;;;;;5.82;2.60;;;9.30;99.90;;;;;;5011128;28;20231;-79
2024/01/22 04:54:17;;;;;;;4.75;2.53;;;9.30;99.90;;;;;;5012254;28;20426;-79
2024/01/22 04:56:45;;;;;;;8.40;2.90;;;9.40;99.90;;;;;;5013816;28;20471;-79
2024/01/22 04:59:11;;;;;;;4.95;2.65;;;9.40;99.90;;;;;;5011507;28;20087;-79
2024/01/22 05:01:37;;;;;;;5.53;2.58;;;9.40;99.90;;;;;;5005137;28;20416;-79
2024/01/22 05:04:04;;;;;;;4.28;2.50;;;9.40;99.90;;;;;;5002852;28;20137;-79
2024/01/22 05:06:30;;;;;;;4.18;2.55;;;9.50;99.90;;;;;;5013457;28;20383;-79
2024/01/22 05:08:56;;;;;;;3.10;1.95;;;9.60;99.90;;;;;;5008813;28;20042;-79
2024/01/22 05:11:22;;;;;;;3.30;2.20;;;9.60;99.90;;;;;;5007008;28;20040;-80
2024/01/22 05:13:52;;;;;;;3.85;2.20;;;9.60;99.90;;;;;;5010477;28;20044;-80
2024/01/22 05:16:19;;;;;;;5.82;2.15;;;9.70;99.90;;;;;;5010358;28;20049;-80
2024/01/22 05:18:45;;;;;;;4.78;2.05;;;9.70;99.90;;;;;;5012569;28;20046;-79
2024/01/22 05:21:14;;;;;;;6.65;2.25;;;9.70;99.90;;;;;;5013001;28;20132;-80
2024/01/22 05:23:40;;;;;;;3.45;2.30;;;9.80;99.90;;;;;;5004816;28;20069;-80
2024/01/22 05:26:06;;;;;;;4.40;2.10;;;9.80;99.90;;;;;;5012323;28;20038;-80
2024/01/22 05:28:32;;;;;;;2.65;1.90;;;9.80;99.90;;;;;;5008810;28;20411;-80
2024/01/22 05:31:00;;;;;;;3.10;2.22;;;9.90;99.90;;;;;;5006262;28;20057;-80
2024/01/22 05:33:25;;;;;;;7.38;2.20;;;9.90;99.90;;;;;;5008627;28;20046;-80
2024/01/22 05:35:51;;;;;;;5.32;2.00;;;10.00;99.90;;;;;;5012126;28;20049;-80
2024/01/22 05:38:17;;;;;;;4.47;1.80;;;10.00;99.90;;;;;;5011073;28;20116;-80
2024/01/22 05:40:42;;;;;;;2.70;1.58;;;10.10;99.90;;;;;;4989821;28;20030;-80
2024/01/22 05:43:08;;;;;;;3.55;1.80;;;10.10;99.90;;;;;;5013036;28;20453;-80
2024/01/22 05:45:34;;;;;;;4.65;1.33;;;10.20;99.90;;;;;;4996526;28;20044;-80
2024/01/22 05:48:03;;;;;;;2.47;1.63;;;10.30;99.90;;;;;;5006682;28;20402;-80
2024/01/22 05:50:29;;;;;;;3.65;1.10;;;10.40;99.90;;;;;;5011590;28;20080;-80
2024/01/22 05:52:55;;;;;;;3.22;1.50;;;10.50;99.90;;;;;;5011170;28;20503;-79
2024/01/22 05:55:20;;;;;;;2.22;1.30;;;10.60;99.90;;;;;;5009209;28;20061;-79
2024/01/22 05:57:47;;;;;;;4.10;1.63;;;10.70;99.90;;;;;;5006983;28;20072;-79
2024/01/22 06:00:13;;;;;;;6.00;1.80;;;10.70;99.90;;;;;;5011032;28;20052;-79
2024/01/22 06:02:40;;;;;;;3.13;1.30;;;10.80;99.90;;;;;;5003935;28;20204;-79
2024/01/22 06:05:06;;;;;;;4.65;1.42;;;10.80;99.90;;;;;;5010533;28;20060;-79
2024/01/22 06:07:31;;;;;;;2.25;1.20;;;10.80;99.90;;;;;;5011053;28;20041;-79
2024/01/22 06:09:57;;;;;;;2.25;1.20;;;10.80;99.90;;;;;;4999024;28;20395;-79
2024/01/22 06:12:22;;;;;;;1.90;1.08;;;10.90;99.90;;;;;;5007254;28;20479;-79
2024/01/22 06:14:48;;;;;;;2.38;1.13;;;10.90;99.90;;;;;;5010192;28;20041;-80
2024/01/22 06:17:14;;;;;;;4.88;1.42;;;11.80;99.90;;;;;;5009652;28;20453;-79
2024/01/22 06:19:39;;;;;;;4.78;1.52;;;11.00;99.90;;;;;;5008004;28;20042;-79
2024/01/22 06:22:05;;;;;;;5.20;1.48;;;11.00;99.90;;;;;;5010111;28;20083;-79
2024/01/22 06:24:34;;;;;;;4.45;1.30;;;11.00;99.90;;;;;;5006406;28;20647;-80
2024/01/22 06:27:00;;;;;;;4.25;1.30;;;10.90;99.90;;;;;;5008356;28;20618;-79
2024/01/22 06:29:25;;;;;;;2.60;1.35;;;10.90;99.90;;;;;;5007221;28;20038;-79
2024/01/22 06:31:51;;;;;;;5.47;1.65;;;10.90;99.90;;;;;;5011597;28;20037;-80
2024/01/22 06:34:16;;;;;;;2.55;1.40;;;11.00;99.90;;;;;;5008913;28;20049;-79
2024/01/22 06:36:42;;;;;;;3.63;1.67;;;10.90;99.90;;;;;;4996516;28;20042;-79
2024/01/22 06:39:08;;;;;;;5.30;1.63;;;10.90;99.90;;;;;;5009979;28;20041;-79
2024/01/22 06:41:34;;;;;;;7.93;2.20;;;10.90;99.90;;;;;;5011661;28;20054;-79
2024/01/22 06:44:00;;;;;;;7.30;2.00;;;10.90;99.90;;;;;;5007534;28;20093;-79
2024/01/22 06:46:25;;;;;;;5.13;1.90;;;10.80;99.90;;;;;;5012001;28;20114;-79
2024/01/22 06:48:51;;;;;;;10.10;2.30;;;10.90;99.90;;;;;;5012873;28;20046;-79
2024/01/22 06:51:16;;;;;;;8.43;2.35;;;10.90;99.90;;;;;;5005405;28;20038;-79
2024/01/22 06:53:43;;;;;;;15.43;3.72;;;10.90;99.90;;;;;;5009817;28;20053;-79
2024/01/22 06:56:08;;;;;;;9.40;2.58;;;10.80;99.90;;;;;;5012275;28;20053;-79
2024/01/22 06:58:34;;;;;;;14.15;2.65;;;10.90;99.90;;;;;;5011074;28;20120;-80
2024/01/22 07:01:00;;;;;;;10.85;2.65;;;10.90;99.90;;;;;;5009391;28;20045;-80
2024/01/22 07:03:26;;;;;;;11.23;2.65;;;10.90;99.90;;;;;;5011074;28;20050;-79
2024/01/22 07:05:52;;;;;;;12.55;2.92;;;10.90;99.90;;;;;;5007886;28;20050;-81
2024/01/22 07:08:20;;;;;;;11.85;2.50;;;10.90;99.90;;;;;;5010255;28;20045;-80
2024/01/22 07:10:46;;;;;;;12.02;2.97;;;11.00;99.90;;;;;;5006006;28;20034;-80
2024/01/22 07:13:11;;;;;;;17.25;3.35;;;11.00;99.90;;;;;;5013956;28;20100;-80
2024/01/22 07:15:37;;;;;;;15.65;3.30;;;11.00;99.90;;;;;;5011873;28;20042;-80
2024/01/22 07:18:02;;;;;;;13.77;2.70;;;11.00;99.90;;;;;;5005344;28;20045;-80
2024/01/22 07:20:28;;;;;;;15.95;3.10;;;11.00;99.90;;;;;;5014175;28;20044;-80
2024/01/22 07:22:54;;;;;;;14.45;2.63;;;11.00;99.90;;;;;;5010265;28;20076;-79
2024/01/22 07:25:20;;;;;;;16.75;3.40;;;11.00;99.90;;;;;;5013796;28;20049;-80
2024/01/22 07:27:45;;;;;;;18.92;3.20;;;11.00;99.90;;;;;;5004451;28;20037;-80
2024/01/22 07:30:12;;;;;;;16.42;3.30;;;11.00;99.90;;;;;;5014217;28;20450;-80
2024/01/22 07:32:40;;;;;;;20.73;3.67;;;11.00;99.90;;;;;;5006935;28;20491;-80
2024/01/22 07:35:07;;;;;;;19.92;3.25;;;11.10;99.90;;;;;;5013963;28;20038;-80
2024/01/22 07:37:34;;;;;;;17.27;4.15;;;11.10;99.90;;;;;;5011240;28;20042;-79
2024/01/22 07:40:01;;;;;;;21.33;3.65;;;11.10;99.90;;;;;;5013512;28;20041;-80
2024/01/22 07:42:26;;;;;;;19.52;3.30;;;11.10;99.90;;;;;;5014463;28;20049;-80
2024/01/22 07:44:52;;;;;;;17.42;3.35;;;11.00;99.90;;;;;;5013763;28;20371;-80
2024/01/22 07:47:17;;;;;;;14.68;3.53;;;11.10;99.90;;;;;;5012069;28;20519;-81
2024/01/22 07:49:43;;;;;;;15.43;2.80;;;11.00;99.90;;;;;;4998365;28;20046;-80
2024/01/22 07:52:08;;;;;;;19.65;3.70;;;11.00;99.90;;;;;;5008358;28;20449;-80
2024/01/22 07:54:34;;;;;;;16.35;3.63;;;11.00;99.90;;;;;;5011149;28;20069;-80
2024/01/22 07:57:00;;;;;;;14.90;3.63;;;11.00;99.90;;;;;;5013052;28;20026;-81
2024/01/22 07:59:25;;;;;;;15.80;3.20;;;11.00;99.90;;;;;;5012682;28;20037;-81
2024/01/22 08:01:51;;;;;;;14.02;2.65;;;11.00;99.90;;;;;;5008341;28;20045;-81
2024/01/22 08:04:16;;;;;;;16.05;3.15;;;11.00;99.90;;;;;;5013348;28;20117;-80
2024/01/22 08:06:42;;;;;;;15.63;3.20;;;11.00;99.90;;;;;;5012281;28;20042;-81
2024/01/22 08:09:07;;;;;;;11.98;2.70;;;10.90;99.90;;;;;;5009859;28;20042;-80
2024/01/22 08:11:33;;;;;;;12.20;3.30;;;10.90;99.90;;;;;;5012057;28;20065;-80
2024/01/22 08:13:58;;;;;;;11.18;2.95;;;10.90;99.90;;;;;;5014400;28;20525;-80
2024/01/22 08:16:24;;;;;;;12.63;3.08;;;10.80;99.90;;;;;;5008636;28;20391;-81
2024/01/22 08:18:50;;;;;;;14.82;3.13;;;11.30;99.90;;;;;;5007511;28;20076;-80
2024/01/22 08:21:15;;;;;;;10.15;2.90;;;10.90;99.90;;;;;;5004927;28;20061;-81
2024/01/22 08:23:41;;;;;;;12.73;3.17;;;10.80;99.90;;;;;;5011009;28;20073;-81
2024/01/22 08:26:06;;;;;;;16.65;3.38;;;10.80;99.90;;;;;;5007306;28;20080;-81
2024/01/22 08:28:32;;;;;;;15.32;3.22;;;10.80;99.90;;;;;;5004155;28;20038;-81
2024/01/22 08:30:58;;;;;;;17.10;3.78;;;10.90;99.90;;;;;;5010336;28;20502;-81
2024/01/22 08:33:23;;;;;;;13.48;3.83;;;10.90;99.90;;;;;;5007602;28;20077;-81
2024/01/22 08:35:49;;;;;;;17.83;3.92;;;10.80;99.90;;;;;;5003224;28;20085;-81
2024/01/22 08:38:14;;;;;;;20.95;4.43;;;10.80;99.90;;;;;;5009785;28;20096;-81
2024/01/22 08:40:40;;;;;;;19.08;3.47;;;10.70;99.90;;;;;;5005548;28;20049;-81
2024/01/22 08:43:06;;;;;;;25.02;5.05;;;10.70;99.90;;;;;;5006910;28;20046;-81
2024/01/22 08:45:33;;;;;;;16.52;3.85;;;10.70;99.90;;;;;;5007895;28;20034;-81
2024/01/22 08:47:59;;;;;;;24.13;4.72;;;10.70;99.90;;;;;;5005074;28;20118;-81
2024/01/22 08:50:25;;;;;;;19.65;3.70;;;10.60;99.90;;;;;;5005185;28;20113;-81
2024/01/22 08:52:53;;;;;;;19.80;4.25;;;10.60;99.90;;;;;;5011563;28;20050;-81
2024/01/22 08:55:22;;;;;;;17.70;3.50;;;10.60;99.90;;;;;;5009680;28;20120;-81
2024/01/22 08:57:48;;;;;;;22.92;4.32;;;10.60;99.90;;;;;;5010797;28;20060;-81
2024/01/22 09:00:15;;;;;;;19.48;3.65;;;10.50;99.90;;;;;;5012055;28;20046;-81
2024/01/22 09:02:42;;;;;;;16.75;4.03;;;10.50;99.90;;;;;;5009289;28;20053;-81
2024/01/22 09:05:08;;;;;;;18.10;4.47;;;10.50;99.90;;;;;;4996859;28;20097;-81
2024/01/22 09:07:35;;;;;;;19.45;4.20;;;10.50;99.90;;;;;;5010205;28;20050;-81
2024/01/22 09:10:03;;;;;;;25.73;4.55;;;10.40;99.90;;;;;;4999729;28;20048;-81
2024/01/22 09:12:29;;;;;;;26.40;5.72;;;10.40;99.90;;;;;;5011378;28;20403;-81
2024/01/22 09:14:54;;;;;;;32.30;5.10;;;10.40;99.90;;;;;;5010532;28;20037;-80
2024/01/22 09:17:20;;;;;;;31.33;5.97;;;10.40;99.90;;;;;;5010853;28;20451;-81
2024/01/22 09:19:46;;;;;;;31.42;5.55;;;10.40;99.90;;;;;;5011365;28;20038;-80
2024/01/22 09:22:11;;;;;;;29.13;6.43;;;10.40;99.90;;;;;;5008015;28;20065;-81
2024/01/22 09:24:37;;;;;;;36.83;6.10;;;10.30;99.90;;;;;;5025838;28;20092;-81
2024/01/22 09:27:02;;;;;;;33.60;6.10;;;10.40;99.90;;;;;;5005978;28;20487;-82
2024/01/22 09:29:28;;;;;;;42.25;7.10;;;10.30;99.90;;;;;;5003908;28;20536;-82
2024/01/22 09:31:54;;;;;;;38.47;6.78;;;10.30;99.90;;;;;;5011535;28;20053;-79
2024/01/22 09:34:19;;;;;;;41.85;6.78;;;10.30;99.90;;;;;;5008146;28;20060;-81
2024/01/22 09:36:45;;;;;;;44.10;7.22;;;10.30;99.90;;;;;;5007327;28;20124;-80
2024/01/22 09:39:11;;;;;;;47.45;7.82;;;10.30;99.90;;;;;;5004575;28;20390;-80
2024/01/22 09:41:37;;;;;;;43.65;7.65;;;10.40;99.90;;;;;;5004143;28;20049;-81
2024/01/22 09:44:05;;;;;;;51.08;7.88;;;10.30;99.90;;;;;;5009687;28;20557;-81
2024/01/22 09:46:31;;;;;;;39.33;7.40;;;10.30;99.90;;;;;;5006507;28;20500;-82
2024/01/22 09:48:56;;;;;;;34.53;7.25;;;10.30;99.90;;;;;;5004916;28;20087;-82
2024/01/22 09:51:22;;;;;;;51.92;8.95;;;10.30;99.90;;;;;;5005268;28;20096;-83
2024/01/22 09:53:47;;;;;;;46.95;7.38;;;10.30;99.90;;;;;;5004077;28;20491;-80
2024/01/22 09:56:21;;;;;;;49.97;7.45;;;10.30;99.90;;;;;;5011815;28;20124;-81
2024/01/22 09:58:53;;;;;;;35.05;6.55;;;10.30;99.90;;;;;;4999724;28;20037;-81
2024/01/22 10:01:18;;;;;;;43.10;6.97;;;10.30;99.90;;;;;;4996911;28;20113;-80
2024/01/22 10:03:45;;;;;;;53.15;8.25;;;10.30;99.90;;;;;;5009692;28;20116;-80
2024/01/22 10:06:12;;;;;;;56.10;7.85;;;10.20;99.90;;;;;;5010271;28;20077;-81
2024/01/22 10:08:38;;;;;;;49.17;8.13;;;10.20;99.90;;;;;;5008348;28;20037;-80
2024/01/22 10:11:04;;;;;;;43.10;6.82;;;10.20;99.90;;;;;;5002572;28;20405;-79
2024/01/22 10:13:46;;;;;;;43.65;9.13;;;10.30;99.90;;;;;;4999158;28;20046;-79
2024/01/22 10:16:13;;;;;;;38.38;7.55;;;10.30;99.90;;;;;;5006070;28;20550;-77
2024/01/22 10:18:39;;;;;;;42.17;7.78;;;10.30;99.90;;;;;;5004927;28;20045;-81
2024/01/22 10:21:05;;;;;;;44.45;7.90;;;10.30;99.90;;;;;;4999966;28;20041;-80
2024/01/22 10:23:33;;;;;;;49.92;7.18;;;10.30;99.90;;;;;;5008408;28;20128;-77
2024/01/22 10:26:09;;;;;;;41.53;7.30;;;10.30;99.90;;;;;;5011600;28;20034;-79
2024/01/22 10:28:35;;;;;;;40.97;7.40;;;10.30;99.90;;;;;;5001755;28;20061;-78
2024/01/22 10:31:03;;;;;;;40.83;7.43;;;10.40;99.90;;;;;;4997194;28;20050;-80
2024/01/22 10:33:29;;;;;;;34.38;6.68;;;10.30;99.90;;;;;;5000866;28;20074;-79
2024/01/22 10:36:18;;;;;;;35.17;6.75;;;10.30;99.90;;;;;;5007501;28;20100;-78
2024/01/22 10:38:45;;;;;;;38.60;6.25;;;10.30;99.90;;;;;;5008560;28;20565;-80
2024/01/22 10:41:22;;;;;;;40.83;7.13;;;10.20;99.90;;;;;;5005067;28;20169;-80
2024/01/22 10:43:49;;;;;;;43.90;7.53;;;10.20;99.90;;;;;;5009553;28;20056;-78
2024/01/22 10:46:17;;;;;;;44.42;7.00;;;10.20;99.90;;;;;;5006685;28;20053;-80
2024/01/22 10:48:44;;;;;;;41.70;7.13;;;10.20;99.90;;;;;;5010729;28;20030;-81
2024/01/22 10:51:10;;;;;;;50.38;9.18;;;10.20;99.90;;;;;;5010114;28;20049;-80
2024/01/22 10:53:39;;;;;;;42.83;6.68;;;10.10;99.90;;;;;;5010544;28;20060;-80
2024/01/22 10:56:05;;;;;;;48.22;8.38;;;10.10;99.90;;;;;;5007070;28;20037;-80
2024/01/22 10:58:44;;;;;;;41.13;7.03;;;10.10;99.90;;;;;;5004141;28;20377;-81
2024/01/22 11:01:18;;;;;;;44.03;6.82;;;10.00;99.90;;;;;;5009072;28;20045;-81
2024/01/22 11:03:49;;;;;;;36.00;6.97;;;10.00;99.90;;;;;;5002633;28;20038;-80
2024/01/22 11:06:19;;;;;;;39.45;7.32;;;9.90;99.90;;;;;;5009966;28;20037;-80
2024/01/22 11:08:49;;;;;;;42.88;7.18;;;9.90;99.90;;;;;;5006768;28;20038;-80
2024/01/22 11:11:18;;;;;;;42.92;7.90;;;9.90;99.90;;;;;;5009303;28;20522;-80
2024/01/22 11:13:49;;;;;;;43.50;6.57;;;9.90;99.90;;;;;;5010191;28;20045;-80
2024/01/22 11:16:15;;;;;;;43.72;8.65;;;9.90;99.90;;;;;;5008255;28;20120;-81
2024/01/22 11:19:01;;;;;;;39.58;6.60;;;9.90;99.90;;;;;;5006974;28;20129;-81
2024/01/22 11:21:42;;;;;;;34.25;6.75;;;10.00;99.90;;;;;;5002329;28;20043;-81
2024/01/22 11:24:19;;;;;;;36.80;6.95;;;10.00;99.90;;;;;;5004752;28;20069;-80
2024/01/22 11:27:05;;;;;;;36.75;7.32;;;10.00;99.90;;;;;;5007867;28;20048;-81
2024/01/22 11:29:32;;;;;;;35.45;7.00;;;10.00;99.90;;;;;;5014218;28;20049;-80
2024/01/22 11:32:28;;;;;;;33.63;5.95;;;10.00;99.90;;;;;;5005193;28;20043;-80
2024/01/22 11:34:58;;;;;;;38.97;6.63;;;10.00;99.90;;;;;;4999320;28;20034;-80
2024/01/22 11:37:34;;;;;;;37.42;6.88;;;10.00;99.90;;;;;;4998863;28;20041;-80
2024/01/22 11:40:00;;;;;;;35.00;7.30;;;10.00;99.90;;;;;;5001454;28;20114;-80
2024/01/22 11:42:28;;;;;;;37.92;6.75;;;10.00;99.90;;;;;;5009711;28;20117;-80
2024/01/22 11:44:54;;;;;;;34.03;6.88;;;10.00;99.90;;;;;;5007521;28;20044;-80
2024/01/22 11:47:22;;;;;;;39.70;5.80;;;10.00;99.90;;;;;;5007705;28;20077;-80
2024/01/22 11:49:48;;;;;;;30.60;6.22;;;10.10;99.90;;;;;;5003515;28;20072;-80
2024/01/22 11:52:17;;;;;;;35.17;6.43;;;10.00;99.90;;;;;;5008831;28;20049;-79
2024/01/22 11:54:57;;;;;;;34.22;6.00;;;10.10;99.90;;;;;;5009394;28;20046;-79
2024/01/22 11:57:23;;;;;;;27.95;5.97;;;10.10;99.90;;;;;;5008451;28;20045;-79
2024/01/22 12:00:11;;;;;;;31.63;6.55;;;10.10;99.90;;;;;;5006008;28;20414;-79
2024/01/22 12:02:48;;;;;;;35.38;5.32;;;10.10;99.90;;;;;;5010041;28;20124;-78
2024/01/22 12:05:18;;;;;;;35.80;6.35;;;10.10;99.90;;;;;;5006668;28;20052;-78
2024/01/22 12:07:53;;;;;;;35.35;6.78;;;10.20;99.90;;;;;;5012021;28;20045;-78
2024/01/22 12:10:25;;;;;;;34.60;5.25;;;10.20;99.90;;;;;;5014111;28;20466;-78
2024/01/22 12:12:58;;;;;;;28.60;5.95;;;10.20;99.90;;;;;;5014223;28;20076;-78
2024/01/22 12:15:26;;;;;;;26.17;4.88;;;10.30;99.90;;;;;;5014721;28;20434;-79
2024/01/22 12:17:52;;;;;;;24.67;5.32;;;10.30;99.90;;;;;;5012586;28;20041;-78
2024/01/22 12:20:20;;;;;;;28.48;5.05;;;10.30;99.90;;;;;;5011435;28;20053;-77
2024/01/22 12:22:54;;;;;;;25.13;4.32;;;10.30;99.90;;;;;;5013152;28;20117;-78
2024/01/22 12:25:20;;;;;;;31.65;5.65;;;10.30;99.90;;;;;;5013197;28;20042;-78
2024/01/22 12:27:47;;;;;;;34.38;6.00;;;10.30;99.90;;;;;;5008990;28;20042;-78
2024/01/22 12:30:17;;;;;;;27.77;6.05;;;10.20;99.90;;;;;;5013094;28;20057;-78
2024/01/22 12:32:53;;;;;;;35.15;6.60;;;10.20;99.90;;;;;;5010339;28;20041;-77
2024/01/22 12:35:22;;;;;;;29.25;5.25;;;10.20;99.90;;;;;;5009937;28;20510;-77
2024/01/22 12:37:48;;;;;;;29.33;5.03;;;10.20;99.90;;;;;;5007617;28;20092;-77
2024/01/22 12:40:17;;;;;;;28.58;5.18;;;10.20;99.90;;;;;;5010487;28;20125;-78
2024/01/22 12:42:47;;;;;;;32.88;5.75;;;10.20;99.90;;;;;;5012291;28;20038;-78
2024/01/22 12:45:17;;;;;;;27.02;5.38;;;10.20;99.90;;;;;;5009831;28;20046;-77